createdAt,value
2022-11-13T00:00:57.136Z,102167.33
2022-11-13T00:01:59.007Z,102160.34
2022-11-13T00:03:00.868Z,102162.06
2022-11-13T00:04:02.733Z,102168.95
2022-11-13T00:05:04.531Z,102158.56
2022-11-13T00:06:06.651Z,102155.96
2022-11-13T00:07:08.513Z,102160.34
2022-11-13T00:08:10.289Z,102169.92
2022-11-13T00:09:12.099Z,102174.22
2022-11-13T00:10:14.132Z,102166.47
2022-11-13T00:11:16.000Z,102167.38
2022-11-13T00:12:17.812Z,102159.64
2022-11-13T00:13:19.633Z,102168.31
2022-11-13T00:14:21.441Z,102164.84
2022-11-13T00:15:23.260Z,102169.13
2022-11-13T00:16:25.098Z,102165.66
2022-11-13T00:17:26.904Z,102163.88
2022-11-13T00:18:28.973Z,102163.81
2022-11-13T00:19:31.089Z,102166.42
2022-11-13T00:20:32.897Z,102161.22
2022-11-13T00:21:34.732Z,102159.41
2022-11-13T00:22:36.564Z,102155.91
2022-11-13T00:23:38.390Z,102150.59
2022-11-13T00:24:40.189Z,102152.44
2022-11-13T00:25:41.995Z,102152.44
2022-11-13T00:26:43.954Z,102153.30
2022-11-13T00:27:45.778Z,102154.22
2022-11-13T00:28:47.590Z,102154.27
2022-11-13T00:29:49.395Z,102149.95
2022-11-13T00:30:51.386Z,102145.63
2022-11-13T00:31:53.224Z,102143.03
2022-11-13T00:32:55.019Z,102152.61
2022-11-13T00:35:00.421Z,102149.08
2022-11-13T00:36:02.231Z,102155.09
2022-11-13T00:37:04.055Z,102155.14
2022-11-13T00:38:05.885Z,102153.42
2022-11-13T00:39:07.687Z,102144.52
2022-11-13T00:40:09.906Z,102151.73
2022-11-13T00:41:11.723Z,102152.61
2022-11-13T00:42:13.560Z,102144.81
2022-11-13T00:43:15.353Z,102141.33
2022-11-13T00:44:17.218Z,102147.41
2022-11-13T00:45:19.030Z,102147.41
2022-11-13T00:46:20.851Z,102150.88
2022-11-13T00:47:22.703Z,102137.06
2022-11-13T00:48:24.665Z,102144.86
2022-11-13T00:49:26.639Z,102149.19
2022-11-13T00:50:28.606Z,102143.14
2022-11-13T00:51:30.445Z,102133.59
2022-11-13T00:52:32.306Z,102137.06
2022-11-13T00:53:34.128Z,102125.80
2022-11-13T00:54:35.907Z,102131.87
2022-11-13T00:55:37.721Z,102129.16
2022-11-13T00:56:39.633Z,102130.88
2022-11-13T00:57:41.463Z,102127.38
2022-11-13T00:58:43.264Z,102129.92
2022-11-13T00:59:45.096Z,102123.84
2022-11-13T01:00:47.012Z,102127.32
2022-11-13T01:01:48.878Z,102127.32
2022-11-13T01:02:50.750Z,102124.78
2022-11-13T01:03:52.548Z,102116.98
2022-11-13T01:04:55.410Z,102115.29
2022-11-13T01:05:57.238Z,102120.44
2022-11-13T01:06:59.168Z,102124.72
2022-11-13T01:08:00.960Z,102125.63
2022-11-13T01:09:02.742Z,102129.92
2022-11-13T01:10:04.664Z,102129.10
2022-11-13T01:11:06.472Z,102129.10
2022-11-13T01:12:08.304Z,102126.56
2022-11-13T01:13:10.152Z,102124.78
2022-11-13T01:14:11.969Z,102116.11
2022-11-13T01:15:13.797Z,102115.29
2022-11-13T01:16:15.796Z,102115.34
2022-11-13T01:17:17.997Z,102112.75
2022-11-13T01:18:21.331Z,102111.84
2022-11-13T01:19:23.170Z,102111.78
2022-11-13T01:20:25.151Z,102111.78
2022-11-13T01:21:26.974Z,102110.03
2022-11-13T01:22:28.783Z,102104.84
2022-11-13T01:23:30.646Z,102105.72
2022-11-13T01:24:32.453Z,102100.52
2022-11-13T01:25:34.263Z,102097.92
2022-11-13T01:26:36.180Z,102094.45
2022-11-13T01:27:37.993Z,102103.11
2022-11-13T01:28:39.823Z,102106.59
2022-11-13T01:29:41.618Z,102101.39
2022-11-13T01:30:43.531Z,102098.84
2022-11-13T01:31:45.353Z,102099.70
2022-11-13T01:32:47.158Z,102097.97
2022-11-13T01:33:48.984Z,102096.25
2022-11-13T01:34:50.789Z,102093.65
2022-11-13T01:35:52.603Z,102093.59
2022-11-13T01:36:54.429Z,102097.16
2022-11-13T01:37:56.222Z,102096.25
2022-11-13T01:38:58.073Z,102101.50
2022-11-13T01:39:59.858Z,102095.43
2022-11-13T01:41:01.672Z,102097.20
2022-11-13T01:42:03.503Z,102090.28
2022-11-13T01:43:05.302Z,102090.28
2022-11-13T01:44:07.132Z,102091.16
2022-11-13T01:45:08.941Z,102094.72
2022-11-13T01:46:12.204Z,102090.34
2022-11-13T01:47:13.984Z,102080.87
2022-11-13T01:48:15.791Z,102086.98
2022-11-13T01:49:17.630Z,102089.63
2022-11-13T01:50:19.532Z,102095.70
2022-11-13T01:51:21.340Z,102090.50
2022-11-13T01:52:23.149Z,102087.14
2022-11-13T01:53:24.937Z,102088.78
2022-11-13T01:54:26.786Z,102093.98
2022-11-13T01:55:28.614Z,102091.37
2022-11-13T01:56:30.504Z,102093.92
2022-11-13T01:57:32.316Z,102095.65
2022-11-13T01:58:34.133Z,102087.80
2022-11-13T01:59:35.980Z,102097.38
2022-11-13T02:00:37.873Z,102093.88
2022-11-13T02:01:39.765Z,102093.05
2022-11-13T02:02:41.524Z,102094.78
2022-11-13T02:03:43.748Z,102093.05
2022-11-13T02:04:45.646Z,102088.73
2022-11-13T02:05:47.476Z,102087.85
2022-11-13T02:06:49.364Z,102087.85
2022-11-13T02:07:51.194Z,102085.25
2022-11-13T02:08:52.995Z,102083.47
2022-11-13T02:09:54.854Z,102086.98
2022-11-13T02:10:56.775Z,102086.12
2022-11-13T02:11:58.567Z,102088.78
2022-11-13T02:13:00.377Z,102093.98
2022-11-13T02:14:02.173Z,102089.69
2022-11-13T02:15:04.027Z,102087.91
2022-11-13T02:16:06.252Z,102088.84
2022-11-13T02:17:08.154Z,102083.69
2022-11-13T02:18:10.096Z,102084.54
2022-11-13T02:19:11.897Z,102085.47
2022-11-13T02:20:13.857Z,102088.94
2022-11-13T02:21:15.658Z,102094.14
2022-11-13T02:22:17.462Z,102088.89
2022-11-13T02:23:19.263Z,102097.59
2022-11-13T02:24:21.055Z,102098.47
2022-11-13T02:25:22.909Z,102096.73
2022-11-13T02:26:24.730Z,102099.34
2022-11-13T02:27:26.531Z,102091.48
2022-11-13T02:28:28.959Z,102091.48
2022-11-13T02:29:30.946Z,102082.05
2022-11-13T02:30:32.766Z,102086.34
2022-11-13T02:31:34.569Z,102096.73
2022-11-13T02:32:36.408Z,102092.39
2022-11-13T02:33:38.203Z,102092.39
2022-11-13T02:34:40.001Z,102092.39
2022-11-13T02:35:41.855Z,102088.84
2022-11-13T02:36:43.678Z,102085.31
2022-11-13T02:37:45.490Z,102086.18
2022-11-13T02:38:47.284Z,102089.74
2022-11-13T02:39:49.211Z,102082.81
2022-11-13T02:40:52.018Z,102090.61
2022-11-13T02:41:53.835Z,102087.96
2022-11-13T02:42:55.625Z,102083.58
2022-11-13T02:43:57.423Z,102087.91
2022-11-13T02:44:59.234Z,102082.70
2022-11-13T02:46:01.082Z,102081.89
2022-11-13T02:47:02.903Z,102073.23
2022-11-13T02:48:04.729Z,102079.34
2022-11-13T02:49:06.544Z,102082.00
2022-11-13T02:50:09.354Z,102081.04
2022-11-13T02:51:11.217Z,102074.97
2022-11-13T02:52:13.049Z,102079.23
2022-11-13T02:53:14.821Z,102079.23
2022-11-13T02:54:17.237Z,102082.88
2022-11-13T02:55:19.135Z,102075.07
2022-11-13T02:56:20.967Z,102089.85
2022-11-13T02:57:22.788Z,102084.65
2022-11-13T02:58:24.625Z,102083.74
2022-11-13T02:59:26.385Z,102077.73
2022-11-13T03:00:28.288Z,102082.88
2022-11-13T03:01:30.213Z,102077.56
2022-11-13T03:02:32.056Z,102078.48
2022-11-13T03:03:56.401Z,102078.48
2022-11-13T03:05:05.166Z,102075.89
2022-11-13T03:05:41.171Z,102067.27
2022-11-13T03:06:43.028Z,102069.88
2022-11-13T03:07:44.824Z,102072.47
2022-11-13T03:08:46.639Z,102073.30
2022-11-13T03:09:48.467Z,102073.30
2022-11-13T03:10:50.368Z,102070.69
2022-11-13T03:11:52.223Z,102075.89
2022-11-13T03:12:54.037Z,102066.34
2022-11-13T03:13:55.825Z,102074.20
2022-11-13T03:14:57.634Z,102069.88
2022-11-13T03:15:59.442Z,102066.45
2022-11-13T03:17:01.414Z,102064.73
2022-11-13T03:18:03.192Z,102071.70
2022-11-13T03:19:05.021Z,102068.20
2022-11-13T03:20:07.225Z,102064.73
2022-11-13T03:21:09.020Z,102062.12
2022-11-13T03:22:10.880Z,102063.00
2022-11-13T03:23:12.691Z,102059.53
2022-11-13T03:24:14.492Z,102065.60
2022-11-13T03:25:16.748Z,102061.25
2022-11-13T03:26:18.516Z,102060.41
2022-11-13T03:27:20.346Z,102057.80
2022-11-13T03:28:22.156Z,102059.58
2022-11-13T03:29:23.965Z,102057.80
2022-11-13T03:30:25.750Z,102063.86
2022-11-13T03:31:27.564Z,102059.53
2022-11-13T03:32:29.427Z,102057.70
2022-11-13T03:33:31.225Z,102058.55
2022-11-13T03:34:33.036Z,102059.42
2022-11-13T03:35:41.866Z,102049.03
2022-11-13T03:36:38.463Z,102051.63
2022-11-13T03:37:40.307Z,102053.30
2022-11-13T03:38:42.124Z,102055.05
2022-11-13T03:39:43.932Z,102057.59
2022-11-13T03:40:45.735Z,102054.12
2022-11-13T03:41:47.523Z,102055.90
2022-11-13T03:42:49.434Z,102054.12
2022-11-13T03:43:51.222Z,102048.10
2022-11-13T03:44:53.030Z,102051.57
2022-11-13T03:45:54.830Z,102048.97
2022-11-13T03:46:56.616Z,102046.38
2022-11-13T03:47:58.483Z,102052.45
2022-11-13T03:49:00.284Z,102052.45
2022-11-13T03:50:02.244Z,102050.75
2022-11-13T03:51:04.062Z,102047.30
2022-11-13T03:52:05.876Z,102047.30
2022-11-13T03:53:07.734Z,102041.23
2022-11-13T03:54:09.539Z,102045.55
2022-11-13T03:55:11.645Z,102043.77
2022-11-13T03:56:15.209Z,102043.77
2022-11-13T03:57:16.983Z,102042.05
2022-11-13T03:58:18.816Z,102051.57
2022-11-13T03:59:20.615Z,102048.10
2022-11-13T04:00:22.551Z,102048.92
2022-11-13T04:01:24.432Z,102045.50
2022-11-13T04:02:26.292Z,102048.92
2022-11-13T04:03:28.131Z,102045.50
2022-11-13T04:04:29.926Z,102047.25
2022-11-13T04:05:31.648Z,102051.63
2022-11-13T04:06:33.646Z,102048.16
2022-11-13T04:07:35.434Z,102046.38
2022-11-13T04:08:37.299Z,102054.17
2022-11-13T04:09:39.083Z,102043.77
2022-11-13T04:10:40.969Z,102038.58
2022-11-13T04:11:42.777Z,102042.95
2022-11-13T04:12:44.810Z,102044.70
2022-11-13T04:13:46.666Z,102045.55
2022-11-13T04:14:48.477Z,102043.83
2022-11-13T04:15:50.277Z,102044.70
2022-11-13T04:16:52.194Z,102049.95
2022-11-13T04:17:53.964Z,102043.06
2022-11-13T04:18:55.947Z,102048.31
2022-11-13T04:19:57.765Z,102035.27
2022-11-13T04:20:59.655Z,102043.06
2022-11-13T04:22:01.463Z,102042.20
2022-11-13T04:23:03.260Z,102043.94
2022-11-13T04:24:05.324Z,102037.91
2022-11-13T04:25:07.151Z,102037.09
2022-11-13T04:26:09.571Z,102038.79
2022-11-13T04:27:11.371Z,102034.41
2022-11-13T04:28:13.170Z,102041.39
2022-11-13T04:29:14.985Z,102039.70
2022-11-13T04:30:17.399Z,102041.44
2022-11-13T04:31:19.200Z,102037.09
2022-11-13T04:32:20.993Z,102043.22
2022-11-13T04:33:22.815Z,102043.27
2022-11-13T04:34:24.661Z,102039.80
2022-11-13T04:35:26.479Z,102038.95
2022-11-13T04:36:28.580Z,102036.34
2022-11-13T04:37:30.380Z,102038.95
2022-11-13T04:38:32.388Z,102035.47
2022-11-13T04:39:34.307Z,102038.08
2022-11-13T04:40:36.131Z,102035.42
2022-11-13T04:41:37.903Z,102033.70
2022-11-13T04:42:39.714Z,102031.09
2022-11-13T04:43:41.510Z,102033.64
2022-11-13T04:44:43.343Z,102032.82
2022-11-13T04:45:45.166Z,102032.82
2022-11-13T04:46:47.078Z,102038.95
2022-11-13T04:47:48.882Z,102041.49
2022-11-13T04:48:50.714Z,102042.45
2022-11-13T04:49:52.560Z,102043.33
2022-11-13T04:50:54.463Z,102043.33
2022-11-13T04:51:56.282Z,102042.45
2022-11-13T04:52:58.109Z,102042.45
2022-11-13T04:53:59.895Z,102039.00
2022-11-13T04:55:01.743Z,102035.53
2022-11-13T04:56:04.118Z,102040.78
2022-11-13T04:57:05.903Z,102032.11
2022-11-13T04:58:07.707Z,102034.70
2022-11-13T04:59:10.851Z,102032.11
2022-11-13T05:00:12.837Z,102035.53
2022-11-13T05:01:14.751Z,102032.11
2022-11-13T05:02:16.671Z,102026.91
2022-11-13T05:03:18.471Z,102028.60
2022-11-13T05:04:20.263Z,102027.73
2022-11-13T05:05:22.118Z,102027.78
2022-11-13T05:06:23.902Z,102028.60
2022-11-13T05:07:25.782Z,102028.60
2022-11-13T05:08:27.737Z,102031.20
2022-11-13T05:09:29.777Z,102036.40
2022-11-13T05:10:31.745Z,102042.50
2022-11-13T05:11:33.546Z,102037.25
2022-11-13T05:12:35.353Z,102036.40
2022-11-13T05:13:37.182Z,102039.00
2022-11-13T05:14:38.986Z,102039.91
2022-11-13T05:15:42.347Z,102037.30
2022-11-13T05:16:44.258Z,102042.56
2022-11-13T05:17:46.062Z,102034.76
2022-11-13T05:18:47.848Z,102034.76
2022-11-13T05:19:49.664Z,102041.65
2022-11-13T05:20:51.596Z,102038.18
2022-11-13T05:21:53.290Z,102039.00
2022-11-13T05:22:55.216Z,102034.66
2022-11-13T05:23:57.030Z,102037.25
2022-11-13T05:24:58.849Z,102041.55
2022-11-13T05:26:00.711Z,102044.14
2022-11-13T05:27:02.514Z,102045.92
2022-11-13T05:28:04.299Z,102045.92
2022-11-13T05:29:06.081Z,102039.91
2022-11-13T05:30:08.301Z,102042.56
2022-11-13T05:31:10.144Z,102046.03
2022-11-13T05:32:11.953Z,102044.36
2022-11-13T05:33:13.765Z,102052.20
2022-11-13T05:34:15.636Z,102044.36
2022-11-13T05:35:17.439Z,102050.52
2022-11-13T05:36:19.397Z,102047.01
2022-11-13T05:37:22.199Z,102050.52
2022-11-13T05:38:23.967Z,102048.78
2022-11-13T05:39:25.769Z,102048.78
2022-11-13T05:40:27.651Z,102044.46
2022-11-13T05:41:29.779Z,102051.39
2022-11-13T05:42:31.780Z,102051.44
2022-11-13T05:43:33.578Z,102054.91
2022-11-13T05:44:35.397Z,102054.91
2022-11-13T05:45:37.219Z,102049.71
2022-11-13T05:46:40.609Z,102053.16
2022-11-13T05:47:42.472Z,102052.27
2022-11-13T05:48:44.308Z,102049.66
2022-11-13T05:49:46.132Z,102053.11
2022-11-13T05:50:48.029Z,102047.01
2022-11-13T05:51:49.867Z,102050.46
2022-11-13T05:52:51.674Z,102053.11
2022-11-13T05:53:53.670Z,102053.06
2022-11-13T05:54:55.448Z,102049.61
2022-11-13T05:55:57.261Z,102048.78
2022-11-13T05:56:59.234Z,102055.77
2022-11-13T05:58:01.067Z,102051.44
2022-11-13T05:59:02.851Z,102054.91
2022-11-13T06:00:04.772Z,102046.29
2022-11-13T06:01:06.575Z,102048.02
2022-11-13T06:02:08.513Z,102049.77
2022-11-13T06:03:10.341Z,102054.09
2022-11-13T06:04:12.201Z,102048.02
2022-11-13T06:05:14.000Z,102048.02
2022-11-13T06:06:15.794Z,102048.84
2022-11-13T06:07:17.710Z,102042.82
2022-11-13T06:08:19.581Z,102049.77
2022-11-13T06:09:21.458Z,102046.29
2022-11-13T06:10:23.266Z,102048.02
2022-11-13T06:11:25.078Z,102047.11
2022-11-13T06:12:26.923Z,102051.49
2022-11-13T06:13:28.745Z,102049.77
2022-11-13T06:14:30.582Z,102048.89
2022-11-13T06:15:32.365Z,102058.52
2022-11-13T06:16:34.383Z,102056.80
2022-11-13T06:17:36.284Z,102050.72
2022-11-13T06:18:38.105Z,102047.22
2022-11-13T06:19:39.893Z,102048.94
2022-11-13T06:20:41.819Z,102041.97
2022-11-13T06:21:43.734Z,102051.49
2022-11-13T06:22:45.588Z,102044.52
2022-11-13T06:23:47.403Z,102043.74
2022-11-13T06:24:49.301Z,102043.74
2022-11-13T06:25:51.097Z,102045.52
2022-11-13T06:26:52.995Z,102041.14
2022-11-13T06:27:56.351Z,102037.72
2022-11-13T06:28:58.215Z,102037.67
2022-11-13T06:30:00.039Z,102034.16
2022-11-13T06:31:01.827Z,102037.67
2022-11-13T06:32:03.649Z,102033.39
2022-11-13T06:33:05.503Z,102030.80
2022-11-13T06:34:07.290Z,102035.99
2022-11-13T06:35:09.094Z,102035.17
2022-11-13T06:36:11.442Z,102027.31
2022-11-13T06:37:13.237Z,102035.99
2022-11-13T06:38:15.120Z,102032.52
2022-11-13T06:39:17.075Z,102034.27
2022-11-13T06:40:19.341Z,102027.38
2022-11-13T06:41:21.154Z,102030.84
2022-11-13T06:42:22.966Z,102039.52
2022-11-13T06:43:24.825Z,102030.89
2022-11-13T06:44:26.633Z,102040.42
2022-11-13T06:45:28.453Z,102036.92
2022-11-13T06:46:30.354Z,102037.83
2022-11-13T06:47:32.154Z,102037.00
2022-11-13T06:48:34.022Z,102032.63
2022-11-13T06:49:35.850Z,102033.49
2022-11-13T06:50:37.746Z,102034.41
2022-11-13T06:51:39.562Z,102040.48
2022-11-13T06:52:41.374Z,102038.70
2022-11-13T06:53:43.233Z,102032.63
2022-11-13T06:54:45.039Z,102040.48
2022-11-13T06:55:46.909Z,102037.05
2022-11-13T06:56:48.734Z,102041.40
2022-11-13T06:57:50.530Z,102029.25
2022-11-13T06:58:52.450Z,102035.33
2022-11-13T06:59:54.272Z,102031.91
2022-11-13T07:00:56.094Z,102035.38
2022-11-13T07:01:57.884Z,102026.75
2022-11-13T07:02:59.694Z,102026.75
2022-11-13T07:04:01.535Z,102038.03
2022-11-13T07:05:03.407Z,102036.30
2022-11-13T07:06:05.307Z,102033.70
2022-11-13T07:07:07.463Z,102040.68
2022-11-13T07:08:09.240Z,102038.95
2022-11-13T07:09:11.106Z,102038.95
2022-11-13T07:10:13.467Z,102041.60
2022-11-13T07:11:15.350Z,102042.51
2022-11-13T07:12:17.147Z,102042.51
2022-11-13T07:13:18.993Z,102045.16
2022-11-13T07:14:20.858Z,102039.96
2022-11-13T07:15:22.648Z,102045.16
2022-11-13T07:16:24.646Z,102039.11
2022-11-13T07:17:26.541Z,102033.08
2022-11-13T07:18:28.709Z,102032.26
2022-11-13T07:19:30.715Z,102031.35
2022-11-13T07:20:32.620Z,102027.88
2022-11-13T07:21:34.426Z,102028.75
2022-11-13T07:22:36.221Z,102034.91
2022-11-13T07:23:38.038Z,102023.59
2022-11-13T07:24:39.892Z,102031.45
2022-11-13T07:25:41.699Z,102022.83
2022-11-13T07:26:43.708Z,102021.09
2022-11-13T07:27:45.501Z,102026.30
2022-11-13T07:28:47.295Z,102019.35
2022-11-13T07:29:49.156Z,102021.05
2022-11-13T07:30:51.146Z,102021.95
2022-11-13T07:31:52.919Z,102025.42
2022-11-13T07:32:54.728Z,102021.09
2022-11-13T07:33:56.559Z,102024.61
2022-11-13T07:34:58.397Z,102022.87
2022-11-13T07:36:00.195Z,102023.75
2022-11-13T07:37:02.010Z,102028.95
2022-11-13T07:38:03.833Z,102027.26
2022-11-13T07:39:05.640Z,102023.75
2022-11-13T07:40:07.782Z,102023.75
2022-11-13T07:41:09.576Z,102015.12
2022-11-13T07:42:11.538Z,102015.17
2022-11-13T07:43:13.334Z,102012.62
2022-11-13T07:44:27.211Z,102013.53
2022-11-13T07:45:18.802Z,102011.80
2022-11-13T07:46:20.592Z,102021.38
2022-11-13T07:47:22.396Z,102016.17
2022-11-13T07:48:24.245Z,102018.78
2022-11-13T07:49:26.050Z,102015.27
2022-11-13T07:50:27.987Z,102020.47
2022-11-13T07:51:29.835Z,102016.17
2022-11-13T07:52:31.641Z,102009.14
2022-11-13T07:53:33.425Z,102009.14
2022-11-13T07:54:35.258Z,102010.12
2022-11-13T07:55:37.114Z,102013.63
2022-11-13T07:56:38.908Z,102002.39
2022-11-13T07:57:40.762Z,102012.84
2022-11-13T07:58:42.559Z,102008.55
2022-11-13T07:59:44.350Z,102005.09
2022-11-13T08:00:46.506Z,102012.90
2022-11-13T08:01:48.358Z,102011.25
2022-11-13T08:02:50.159Z,102011.30
2022-11-13T08:03:51.954Z,102016.50
2022-11-13T08:04:53.768Z,102012.17
2022-11-13T08:05:55.635Z,102014.82
2022-11-13T08:06:57.603Z,102014.82
2022-11-13T08:07:59.444Z,102012.22
2022-11-13T08:09:01.240Z,102012.27
2022-11-13T08:10:03.132Z,102011.44
2022-11-13T08:11:04.989Z,102017.52
2022-11-13T08:12:06.795Z,102014.09
2022-11-13T08:13:08.642Z,102015.84
2022-11-13T08:14:10.458Z,102016.74
2022-11-13T08:15:13.511Z,102012.41
2022-11-13T08:16:16.338Z,102011.59
2022-11-13T08:17:18.165Z,102009.03
2022-11-13T08:18:19.962Z,102010.86
2022-11-13T08:19:21.767Z,102016.89
2022-11-13T08:20:23.681Z,102009.13
2022-11-13T08:21:25.508Z,102012.66
2022-11-13T08:22:27.325Z,102004.84
2022-11-13T08:23:29.104Z,102010.14
2022-11-13T08:24:30.933Z,102003.24
2022-11-13T08:25:32.753Z,102013.70
2022-11-13T08:26:34.712Z,102008.49
2022-11-13T08:27:36.511Z,102010.28
2022-11-13T08:28:38.379Z,102014.66
2022-11-13T08:29:40.190Z,102010.33
2022-11-13T08:30:41.977Z,102011.23
2022-11-13T08:31:43.825Z,102007.82
2022-11-13T08:32:45.613Z,102007.82
2022-11-13T08:33:47.421Z,102012.25
2022-11-13T08:34:49.257Z,102006.22
2022-11-13T08:35:51.062Z,102007.91
2022-11-13T08:36:52.999Z,102004.48
2022-11-13T08:37:54.814Z,102010.56
2022-11-13T08:38:56.624Z,102010.64
2022-11-13T08:39:58.440Z,102007.18
2022-11-13T08:41:04.378Z,102008.13
2022-11-13T08:42:03.996Z,102000.33
2022-11-13T08:43:05.791Z,102002.06
2022-11-13T08:44:07.603Z,101998.64
2022-11-13T08:45:09.477Z,101999.51
2022-11-13T08:46:11.417Z,101999.55
2022-11-13T08:47:13.258Z,101998.69
2022-11-13T08:48:15.076Z,101997.81
2022-11-13T08:49:16.902Z,101998.69
2022-11-13T08:50:18.876Z,102003.02
2022-11-13T08:51:20.900Z,102003.94
2022-11-13T08:52:22.774Z,102001.33
2022-11-13T08:53:24.579Z,101997.05
2022-11-13T08:54:26.364Z,102001.33
2022-11-13T08:55:28.151Z,101991.79
2022-11-13T08:56:30.067Z,102000.46
2022-11-13T08:57:31.992Z,101995.25
2022-11-13T08:58:33.817Z,101995.30
2022-11-13T08:59:35.661Z,101990.09
2022-11-13T09:00:37.580Z,101991.79
2022-11-13T09:01:39.389Z,101989.19
2022-11-13T09:02:41.238Z,101986.63
2022-11-13T09:03:43.117Z,101989.23
2022-11-13T09:04:44.945Z,101984.92
2022-11-13T09:05:46.872Z,101987.53
2022-11-13T09:06:48.806Z,101977.12
2022-11-13T09:07:52.763Z,101974.56
2022-11-13T09:08:54.623Z,101978.03
2022-11-13T09:09:56.443Z,101976.30
2022-11-13T09:10:58.358Z,101975.47
2022-11-13T09:12:00.176Z,101967.66
2022-11-13T09:13:02.027Z,101968.53
2022-11-13T09:14:03.903Z,101973.78
2022-11-13T09:15:05.973Z,101973.78
2022-11-13T09:16:07.891Z,101971.23
2022-11-13T09:17:09.722Z,101966.92
2022-11-13T09:18:11.548Z,101975.61
2022-11-13T09:19:13.323Z,101966.92
2022-11-13T09:20:19.072Z,101966.06
2022-11-13T09:21:20.777Z,101970.44
2022-11-13T09:22:22.597Z,101968.71
2022-11-13T09:23:24.466Z,101968.71
2022-11-13T09:24:26.277Z,101958.38
2022-11-13T09:25:31.417Z,101965.32
2022-11-13T09:26:31.857Z,101963.62
2022-11-13T09:27:33.666Z,101959.33
2022-11-13T09:28:35.514Z,101960.24
2022-11-13T09:29:37.315Z,101956.77
2022-11-13T09:30:39.273Z,101952.43
2022-11-13T09:31:41.213Z,101960.28
2022-11-13T09:32:43.157Z,101954.25
2022-11-13T09:33:45.016Z,101952.52
2022-11-13T09:34:46.878Z,101956.02
2022-11-13T09:35:48.683Z,101957.77
2022-11-13T09:36:50.515Z,101954.30
2022-11-13T09:37:52.337Z,101962.98
2022-11-13T09:38:54.199Z,101956.07
2022-11-13T09:39:56.016Z,101953.50
2022-11-13T09:40:57.959Z,101956.16
2022-11-13T09:41:59.777Z,101959.59
2022-11-13T09:43:01.692Z,101949.17
2022-11-13T09:44:03.527Z,101951.77
2022-11-13T09:45:05.326Z,101949.17
2022-11-13T09:46:07.565Z,101945.73
2022-11-13T09:47:09.434Z,101950.08
2022-11-13T09:48:11.314Z,101940.61
2022-11-13T09:49:13.459Z,101940.61
2022-11-13T09:50:15.472Z,101941.48
2022-11-13T09:51:17.317Z,101943.26
2022-11-13T09:52:19.131Z,101943.22
2022-11-13T09:53:20.941Z,101942.39
2022-11-13T09:54:22.876Z,101941.52
2022-11-13T09:55:24.692Z,101939.79
2022-11-13T09:56:26.642Z,101946.77
2022-11-13T09:57:28.421Z,101943.34
2022-11-13T09:58:30.661Z,101939.00
2022-11-13T09:59:32.748Z,101940.73
2022-11-13T10:00:34.549Z,101934.58
2022-11-13T10:01:36.456Z,101938.96
2022-11-13T10:02:38.341Z,101944.17
2022-11-13T10:04:04.083Z,101939.83
2022-11-13T10:04:43.799Z,101931.97
2022-11-13T10:05:45.786Z,101934.58
2022-11-13T10:06:47.613Z,101931.06
2022-11-13T10:07:49.418Z,101937.14
2022-11-13T10:08:51.237Z,101937.19
2022-11-13T10:09:53.107Z,101934.58
2022-11-13T10:10:56.128Z,101934.58
2022-11-13T10:11:58.081Z,101931.15
2022-11-13T10:12:59.919Z,101923.25
2022-11-13T10:14:01.758Z,101923.25
2022-11-13T10:15:03.654Z,101928.58
2022-11-13T10:16:05.557Z,101931.19
2022-11-13T10:17:07.460Z,101938.13
2022-11-13T10:18:09.297Z,101931.19
2022-11-13T10:19:11.155Z,101930.31
2022-11-13T10:20:13.178Z,101928.58
2022-11-13T10:21:15.034Z,101926.92
2022-11-13T10:22:33.944Z,101930.40
2022-11-13T10:23:20.499Z,101931.27
2022-11-13T10:24:22.339Z,101928.70
2022-11-13T10:25:24.233Z,101933.92
2022-11-13T10:26:26.172Z,101928.70
2022-11-13T10:27:28.121Z,101933.12
2022-11-13T10:29:33.646Z,101932.25
2022-11-13T10:30:35.520Z,101935.73
2022-11-13T10:31:37.372Z,101935.77
2022-11-13T10:32:39.220Z,101931.39
2022-11-13T10:33:41.214Z,101936.60
2022-11-13T10:34:43.022Z,101939.25
2022-11-13T10:35:44.910Z,101941.89
2022-11-13T10:36:46.729Z,101944.55
2022-11-13T10:37:48.546Z,101941.11
2022-11-13T10:38:50.403Z,101941.11
2022-11-13T10:39:52.275Z,101935.94
2022-11-13T10:40:54.269Z,101940.31
2022-11-13T10:41:56.163Z,101940.40
2022-11-13T10:42:57.970Z,101936.93
2022-11-13T10:43:59.803Z,101939.58
2022-11-13T10:45:01.701Z,101929.16
2022-11-13T10:46:03.546Z,101933.53
2022-11-13T10:47:05.354Z,101929.22
2022-11-13T10:48:07.259Z,101923.15
2022-11-13T10:49:09.109Z,101922.31
2022-11-13T10:50:11.340Z,101923.23
2022-11-13T10:51:13.184Z,101926.78
2022-11-13T10:52:15.004Z,101920.70
2022-11-13T10:53:16.831Z,101925.05
2022-11-13T10:54:18.617Z,101912.88
2022-11-13T10:55:20.419Z,101916.39
2022-11-13T10:56:22.368Z,101920.73
2022-11-13T10:57:24.175Z,101918.17
2022-11-13T10:58:26.156Z,101918.17
2022-11-13T10:59:28.068Z,101914.73
2022-11-13T11:00:29.982Z,101914.73
2022-11-13T11:01:31.865Z,101913.91
2022-11-13T11:02:33.650Z,101905.22
2022-11-13T11:03:35.559Z,101900.91
2022-11-13T11:04:37.365Z,101913.04
2022-11-13T11:05:39.175Z,101899.13
2022-11-13T11:07:44.793Z,101896.61
2022-11-13T11:08:46.645Z,101896.67
2022-11-13T11:09:48.467Z,101905.41
2022-11-13T11:10:50.481Z,101895.84
2022-11-13T11:11:52.306Z,101890.63
2022-11-13T11:12:54.153Z,101900.19
2022-11-13T11:13:55.960Z,101888.86
2022-11-13T11:14:57.795Z,101891.50
2022-11-13T11:15:59.590Z,101891.54
2022-11-13T11:17:01.558Z,101883.72
2022-11-13T11:18:03.354Z,101886.36
2022-11-13T11:19:05.184Z,101884.70
2022-11-13T11:20:07.491Z,101886.47
2022-11-13T11:21:09.300Z,101882.16
2022-11-13T11:22:11.143Z,101879.62
2022-11-13T11:23:12.957Z,101875.36
2022-11-13T11:24:14.813Z,101873.63
2022-11-13T11:25:17.709Z,101873.66
2022-11-13T11:26:19.765Z,101866.78
2022-11-13T11:27:21.811Z,101873.70
2022-11-13T11:28:23.626Z,101865.04
2022-11-13T11:29:25.440Z,101865.91
2022-11-13T11:30:27.234Z,101854.61
2022-11-13T11:31:29.074Z,101858.98
2022-11-13T11:32:30.920Z,101861.63
2022-11-13T11:33:32.784Z,101852.03
2022-11-13T11:34:34.666Z,101858.13
2022-11-13T11:35:36.458Z,101852.94
2022-11-13T11:36:38.365Z,101854.72
2022-11-13T11:37:40.238Z,101859.09
2022-11-13T11:38:42.069Z,101858.23
2022-11-13T11:39:43.860Z,101862.61
2022-11-13T11:40:45.772Z,101861.73
2022-11-13T11:41:47.589Z,101858.23
2022-11-13T11:42:49.426Z,101860.83
2022-11-13T11:43:51.252Z,101859.16
2022-11-13T11:44:53.229Z,101859.16
2022-11-13T11:45:55.048Z,101857.42
2022-11-13T11:46:57.303Z,101857.47
2022-11-13T11:47:59.256Z,101848.84
2022-11-13T11:49:01.155Z,101849.70
2022-11-13T11:50:03.101Z,101839.28